createdAt,value
2022-11-24T00:01:22.245Z,5.78
2022-11-24T00:04:03.594Z,7.63
2022-11-24T00:06:34.113Z,9.10
2022-11-24T00:09:03.488Z,6.07
2022-11-24T00:11:36.456Z,10.05
2022-11-24T00:14:06.702Z,8.38
2022-11-24T00:16:37.660Z,7.40
2022-11-24T00:19:10.443Z,5.57
2022-11-24T00:21:39.064Z,5.63
2022-11-24T00:24:07.782Z,5.45
2022-11-24T00:26:40.550Z,5.40
2022-11-24T00:29:10.882Z,4.30
2022-11-24T00:31:42.190Z,7.03
2022-11-24T00:34:13.621Z,6.40
2022-11-24T00:36:44.957Z,7.00
2022-11-24T00:39:16.016Z,7.47
2022-11-24T00:44:25.819Z,8.20
2022-11-24T00:58:51.219Z,5.43
2022-11-24T01:01:37.940Z,6.15
2022-11-24T01:04:06.655Z,4.93
2022-11-24T01:06:37.421Z,5.50
2022-11-24T01:09:05.479Z,5.65
2022-11-24T01:11:54.786Z,5.50
2022-11-24T01:14:26.768Z,3.67
2022-11-24T01:16:55.591Z,4.30
2022-11-24T01:19:26.406Z,4.63
2022-11-24T01:21:54.372Z,5.65
2022-11-24T01:24:22.521Z,5.68
2022-11-24T01:26:59.826Z,7.65
2022-11-24T01:29:27.859Z,12.98
2022-11-24T01:31:56.123Z,6.28
2022-11-24T01:34:28.136Z,4.60
2022-11-24T01:42:14.870Z,4.22
2022-11-24T01:55:13.152Z,5.75
2022-11-24T01:57:31.964Z,7.43
2022-11-24T02:00:08.643Z,7.80
2022-11-24T02:02:45.179Z,7.35
2022-11-24T02:05:29.728Z,11.57
2022-11-24T02:08:02.390Z,7.50
2022-11-24T02:10:30.636Z,8.45
2022-11-24T02:13:02.009Z,9.30
2022-11-24T02:15:30.260Z,7.90
2022-11-24T02:17:59.583Z,4.82
2022-11-24T02:20:27.824Z,3.65
2022-11-24T02:23:25.819Z,4.60
2022-11-24T02:26:28.668Z,8.13
2022-11-24T02:28:57.388Z,8.25
2022-11-24T02:31:25.930Z,10.45
2022-11-24T02:33:56.236Z,9.18
2022-11-24T02:36:26.589Z,6.80
2022-11-24T02:40:16.918Z,9.48
2022-11-24T02:51:39.659Z,6.13
2022-11-24T02:53:52.332Z,3.97
2022-11-24T02:56:20.307Z,3.05
2022-11-24T03:01:35.341Z,18.90
2022-11-24T03:04:03.704Z,12.25
2022-11-24T03:06:31.543Z,11.43
2022-11-24T03:08:59.431Z,10.07
2022-11-24T03:11:27.308Z,4.25
2022-11-24T03:13:55.299Z,6.60
2022-11-24T03:16:23.272Z,6.30
2022-11-24T03:18:52.039Z,2.80
2022-11-24T03:21:20.669Z,2.85
2022-11-24T03:23:48.488Z,3.53
2022-11-24T03:26:18.976Z,3.35
2022-11-24T03:28:47.265Z,6.55
2022-11-24T03:31:15.537Z,13.27
2022-11-24T03:33:43.592Z,17.00
2022-11-24T03:36:11.668Z,9.10
2022-11-24T03:38:39.497Z,7.20
2022-11-24T03:41:07.582Z,9.60
2022-11-24T03:43:40.411Z,10.05
2022-11-24T03:46:12.490Z,8.80
2022-11-24T03:51:08.600Z,4.97
2022-11-24T03:53:36.469Z,4.75
2022-11-24T03:56:04.687Z,6.10
2022-11-24T03:58:32.887Z,10.32
2022-11-24T04:01:00.728Z,6.40
2022-11-24T04:03:28.754Z,3.90
2022-11-24T04:05:56.961Z,7.45
2022-11-24T04:08:25.303Z,7.95
2022-11-24T04:10:54.624Z,9.48
2022-11-24T04:13:24.787Z,9.05
2022-11-24T04:15:53.195Z,10.00
2022-11-24T04:18:21.297Z,8.88
2022-11-24T04:20:51.425Z,8.10
2022-11-24T04:23:19.480Z,9.27
2022-11-24T04:25:47.416Z,8.68
2022-11-24T04:28:15.411Z,7.82
2022-11-24T04:30:45.119Z,8.07
2022-11-24T04:33:13.746Z,8.77
2022-11-24T04:35:41.604Z,9.82
2022-11-24T04:38:09.621Z,15.80
2022-11-24T04:40:38.437Z,12.48
2022-11-24T04:43:06.465Z,12.02
2022-11-24T04:45:34.478Z,19.08
2022-11-24T04:48:02.577Z,8.27
2022-11-24T04:50:30.808Z,16.77
2022-11-24T04:52:58.929Z,19.15
2022-11-24T04:55:27.195Z,14.13
2022-11-24T04:57:55.297Z,11.88
2022-11-24T05:00:23.270Z,13.50
2022-11-24T05:02:51.250Z,9.52
2022-11-24T05:05:19.232Z,18.02
2022-11-24T05:07:47.045Z,17.92
2022-11-24T05:10:33.473Z,17.23
2022-11-24T05:13:03.223Z,18.60
2022-11-24T05:15:31.185Z,24.98
2022-11-24T05:17:59.493Z,14.52
2022-11-24T05:20:27.411Z,8.38
2022-11-24T05:22:55.427Z,21.15
2022-11-24T05:25:23.536Z,15.15
2022-11-24T05:27:51.878Z,20.63
2022-11-24T05:30:19.925Z,15.40
2022-11-24T05:32:47.857Z,12.50
2022-11-24T05:35:16.268Z,9.73
2022-11-24T05:37:44.270Z,12.00
2022-11-24T05:40:12.451Z,14.15
2022-11-24T05:42:47.679Z,13.07
2022-11-24T05:45:19.320Z,11.55
2022-11-24T05:47:49.477Z,12.43
2022-11-24T05:50:19.813Z,9.68
2022-11-24T05:52:50.563Z,7.90
2022-11-24T05:55:19.752Z,9.45
2022-11-24T05:57:58.589Z,14.25
2022-11-24T06:00:26.887Z,20.15
2022-11-24T06:02:55.169Z,11.90
2022-11-24T06:05:23.316Z,14.60
2022-11-24T06:07:52.469Z,18.05
2022-11-24T06:10:22.445Z,17.38
2022-11-24T06:12:51.161Z,22.17
2022-11-24T06:15:19.059Z,31.38
2022-11-24T06:17:56.891Z,32.05
2022-11-24T06:20:29.906Z,29.10
2022-11-24T06:23:01.360Z,36.30
2022-11-24T06:25:29.726Z,36.83
2022-11-24T06:27:57.809Z,20.52
2022-11-24T06:30:25.705Z,24.77
2022-11-24T06:32:56.467Z,19.95
2022-11-24T06:35:24.427Z,21.75
2022-11-24T06:37:52.401Z,23.42
2022-11-24T06:40:22.584Z,26.00
2022-11-24T06:42:54.282Z,22.95
2022-11-24T06:45:23.648Z,19.90
2022-11-24T06:47:55.035Z,14.10
2022-11-24T06:50:25.215Z,14.48
2022-11-24T06:52:55.386Z,23.67
2022-11-24T06:55:23.388Z,31.88
2022-11-24T06:57:51.316Z,26.25
2022-11-24T07:00:19.661Z,31.38
2022-11-24T07:02:48.464Z,52.40
2022-11-24T07:05:16.587Z,40.13
2022-11-24T07:07:44.716Z,26.00
2022-11-24T07:10:13.105Z,20.40
2022-11-24T07:12:41.099Z,16.83
2022-11-24T07:15:09.888Z,10.13
2022-11-24T07:17:41.095Z,8.50
2022-11-24T07:20:09.743Z,9.02
2022-11-24T07:22:37.721Z,17.75
2022-11-24T07:25:07.645Z,11.32
2022-11-24T07:27:36.102Z,11.68
2022-11-24T07:30:04.730Z,14.63
2022-11-24T07:32:33.215Z,9.15
2022-11-24T07:35:01.079Z,9.40
2022-11-24T07:37:31.525Z,10.35
2022-11-24T07:39:59.800Z,6.70
2022-11-24T07:42:28.157Z,6.10
2022-11-24T07:44:56.010Z,12.80
2022-11-24T07:47:23.979Z,11.10
2022-11-24T07:49:52.095Z,9.50
2022-11-24T07:52:20.050Z,11.95
2022-11-24T07:54:48.157Z,7.93
2022-11-24T07:57:16.014Z,14.55
2022-11-24T07:59:43.945Z,15.40
2022-11-24T08:02:13.562Z,11.95
2022-11-24T08:04:41.544Z,10.43
2022-11-24T08:07:09.457Z,10.35
2022-11-24T08:09:37.522Z,8.38
2022-11-24T08:12:05.736Z,8.80
2022-11-24T08:14:33.928Z,10.52
2022-11-24T08:17:02.082Z,5.57
2022-11-24T08:19:30.004Z,4.93
2022-11-24T08:21:58.108Z,5.72
2022-11-24T08:24:27.477Z,14.80
2022-11-24T08:26:55.363Z,9.65
2022-11-24T08:29:23.377Z,11.63
2022-11-24T08:31:51.422Z,11.85
2022-11-24T08:34:19.324Z,9.82
2022-11-24T08:36:47.337Z,8.88
2022-11-24T08:39:15.250Z,9.45
2022-11-24T08:41:43.316Z,8.15
2022-11-24T08:44:11.444Z,8.88
2022-11-24T08:46:39.515Z,8.10
2022-11-24T08:49:07.793Z,7.97
2022-11-24T08:51:35.797Z,8.65
2022-11-24T08:54:03.845Z,10.93
2022-11-24T08:56:33.329Z,10.73
2022-11-24T08:59:02.065Z,16.10
2022-11-24T09:01:30.400Z,10.07
2022-11-24T09:03:58.580Z,7.93
2022-11-24T09:06:31.126Z,9.02
2022-11-24T09:09:00.243Z,12.05
2022-11-24T09:11:29.303Z,8.93
2022-11-24T09:13:57.555Z,6.28
2022-11-24T09:16:28.153Z,4.80
2022-11-24T09:19:04.987Z,5.45
2022-11-24T09:21:34.635Z,5.70
2022-11-24T09:24:02.769Z,7.90
2022-11-24T09:26:33.901Z,4.45
2022-11-24T09:29:03.962Z,4.22
2022-11-24T09:31:34.709Z,4.25
2022-11-24T09:34:05.690Z,7.90
2022-11-24T09:36:33.985Z,11.93
2022-11-24T09:39:02.194Z,3.15
2022-11-24T09:41:56.294Z,3.72
2022-11-24T09:44:51.329Z,6.45
2022-11-24T09:47:59.488Z,4.38
2022-11-24T09:50:33.524Z,3.65
2022-11-24T09:53:11.398Z,3.90
2022-11-24T09:55:51.577Z,3.90
2022-11-24T09:58:46.017Z,2.78
2022-11-24T10:01:19.522Z,9.07
2022-11-24T10:03:52.253Z,9.52
2022-11-24T10:06:30.847Z,4.40
2022-11-24T10:09:16.441Z,3.17
2022-11-24T10:12:14.160Z,2.83
2022-11-24T10:14:50.821Z,1.73
2022-11-24T10:17:21.503Z,1.42
2022-11-24T10:20:09.136Z,2.72
2022-11-24T10:23:04.384Z,5.28
2022-11-24T10:25:41.237Z,3.65
2022-11-24T10:28:15.769Z,5.35
2022-11-24T10:30:44.130Z,4.40
2022-11-24T10:33:28.781Z,3.85
2022-11-24T10:36:08.314Z,2.28
2022-11-24T10:38:40.864Z,5.45
2022-11-24T10:41:17.017Z,7.60
2022-11-24T10:43:45.116Z,4.15
2022-11-24T10:46:24.743Z,4.03
2022-11-24T10:49:00.665Z,3.53
2022-11-24T10:51:51.265Z,4.20
2022-11-24T10:54:22.767Z,4.45
2022-11-24T10:56:53.171Z,13.15
2022-11-24T10:59:36.738Z,5.85
2022-11-24T11:02:38.849Z,5.70
2022-11-24T11:05:38.276Z,3.78
2022-11-24T11:08:20.159Z,3.30
2022-11-24T11:11:14.569Z,5.00
2022-11-24T11:14:01.614Z,7.93
2022-11-24T11:16:37.545Z,5.55
2022-11-24T11:20:00.089Z,3.55
2022-11-24T11:22:32.104Z,5.80
2022-11-24T11:25:03.004Z,3.65
2022-11-24T11:27:31.013Z,4.88
2022-11-24T11:36:16.138Z,7.82
2022-11-24T11:41:36.214Z,5.15
2022-11-24T11:44:26.853Z,5.20
2022-11-24T11:46:57.205Z,3.40
2022-11-24T11:49:25.424Z,4.63
2022-11-24T11:52:08.383Z,2.55
2022-11-24T11:55:02.886Z,10.18
2022-11-24T11:57:47.082Z,3.75
2022-11-24T12:00:22.204Z,4.25
2022-11-24T12:03:27.340Z,3.15
2022-11-24T12:06:53.120Z,6.97
2022-11-24T12:09:56.049Z,16.20
2022-11-24T12:12:31.801Z,5.53
2022-11-24T12:15:37.701Z,7.20
2022-11-24T12:18:49.025Z,4.72
2022-11-24T12:21:25.966Z,4.10
2022-11-24T12:24:10.003Z,5.82
2022-11-24T12:26:52.681Z,5.68
2022-11-24T12:29:26.588Z,14.18
2022-11-24T12:32:31.421Z,6.38
2022-11-24T12:35:54.902Z,6.90
2022-11-24T12:38:56.041Z,8.90
2022-11-24T12:41:41.562Z,11.52
2022-11-24T12:44:37.937Z,8.13
2022-11-24T12:47:20.133Z,11.88
2022-11-24T12:50:12.987Z,6.35
2022-11-24T12:53:04.311Z,3.38
2022-11-24T12:55:34.291Z,3.78
2022-11-24T12:58:14.897Z,9.98
2022-11-24T13:01:32.557Z,5.03
2022-11-24T13:04:15.670Z,2.63
2022-11-24T13:06:49.286Z,4.80
2022-11-24T13:09:17.989Z,3.53
2022-11-24T13:11:53.286Z,3.70
2022-11-24T13:17:40.593Z,2.40
2022-11-24T13:20:21.873Z,4.13
2022-11-24T13:22:54.269Z,7.78
2022-11-24T13:25:41.047Z,4.30
2022-11-24T13:29:03.218Z,3.83
2022-11-24T13:31:34.738Z,5.70
2022-11-24T13:34:46.100Z,3.97
2022-11-24T13:37:45.817Z,3.38
2022-11-24T13:40:13.776Z,3.20
2022-11-24T13:42:57.513Z,3.58
2022-11-24T13:45:45.334Z,4.72
2022-11-24T13:48:19.480Z,4.85
2022-11-24T13:50:50.666Z,26.67
2022-11-24T13:53:36.497Z,7.93
2022-11-24T13:56:13.833Z,5.50
2022-11-24T13:58:45.235Z,15.02
2022-11-24T14:01:32.676Z,8.27
2022-11-24T14:06:59.020Z,15.20
2022-11-24T14:09:37.713Z,4.68
2022-11-24T14:12:14.882Z,9.40
2022-11-24T14:14:44.714Z,9.77
2022-11-24T14:17:23.224Z,5.95
2022-11-24T14:19:56.531Z,4.18
2022-11-24T14:22:33.884Z,6.57
2022-11-24T14:25:02.922Z,6.88
2022-11-24T14:27:34.584Z,8.38
2022-11-24T14:30:18.273Z,10.80
2022-11-24T14:33:01.133Z,4.95
2022-11-24T14:35:35.095Z,3.40
2022-11-24T14:38:05.891Z,4.95
2022-11-24T14:40:50.024Z,5.97
2022-11-24T14:43:25.981Z,5.38
2022-11-24T14:45:55.742Z,7.95
2022-11-24T14:48:30.794Z,3.33
2022-11-24T14:51:14.927Z,5.95
2022-11-24T14:53:45.694Z,4.47
2022-11-24T14:57:04.341Z,2.95
2022-11-24T14:59:38.254Z,6.40
2022-11-24T15:02:38.643Z,2.72
2022-11-24T15:05:07.271Z,5.35
2022-11-24T15:07:38.914Z,4.22
2022-11-24T15:10:20.494Z,8.68
2022-11-24T15:12:58.717Z,3.85
2022-11-24T15:15:34.090Z,1.92
2022-11-24T15:18:04.704Z,3.03
2022-11-24T15:20:46.434Z,2.47
2022-11-24T15:23:24.892Z,2.67
2022-11-24T15:26:01.582Z,3.10
2022-11-24T15:28:31.202Z,5.03
2022-11-24T15:31:14.450Z,6.47
2022-11-24T15:33:42.764Z,5.68
2022-11-24T15:36:12.583Z,2.58
2022-11-24T15:38:40.577Z,7.40
2022-11-24T15:41:21.076Z,15.05
2022-11-24T15:43:49.423Z,23.60
2022-11-24T15:46:17.801Z,18.13
2022-11-24T15:48:46.501Z,3.83
2022-11-24T15:51:15.247Z,6.32
2022-11-24T15:53:49.724Z,2.28
2022-11-24T15:56:33.305Z,3.35
2022-11-24T15:59:02.443Z,6.85
2022-11-24T16:01:33.370Z,9.13
2022-11-24T16:04:02.666Z,29.45
2022-11-24T16:09:00.062Z,19.95
2022-11-24T16:11:28.418Z,14.35
2022-11-24T16:13:57.120Z,20.63
2022-11-24T16:16:25.626Z,3.95
2022-11-24T16:18:54.390Z,16.98
2022-11-24T16:21:23.715Z,6.43
2022-11-24T16:23:52.251Z,12.82
2022-11-24T16:26:20.436Z,11.48
2022-11-24T16:28:48.992Z,6.03
2022-11-24T16:31:18.434Z,5.22
2022-11-24T16:33:47.221Z,8.52
2022-11-24T16:36:15.852Z,4.30
2022-11-24T16:38:44.558Z,4.55
2022-11-24T16:41:13.396Z,4.97
2022-11-24T16:43:41.930Z,4.25
2022-11-24T16:46:23.166Z,7.72
2022-11-24T17:28:24.555Z,25.00
2022-11-24T18:39:24.317Z,13.27
2022-11-24T18:48:22.067Z,5.80
2022-11-24T18:57:10.466Z,3.30
2022-11-24T18:59:46.156Z,6.18
2022-11-24T19:10:27.441Z,7.15
2022-11-24T19:15:38.637Z,12.63
2022-11-24T19:31:41.253Z,3.28
2022-11-24T19:36:57.844Z,3.03
2022-11-24T19:52:56.920Z,4.80
2022-11-24T19:55:30.766Z,3.92
2022-11-24T20:00:51.393Z,4.13
2022-11-24T20:03:30.118Z,4.25
2022-11-24T20:19:41.631Z,5.38
2022-11-24T20:44:10.192Z,4.38
2022-11-24T20:57:31.878Z,4.35
2022-11-24T21:02:48.310Z,3.80
2022-11-24T21:16:16.496Z,3.13
2022-11-24T21:18:56.004Z,6.00
2022-11-24T21:21:25.850Z,3.55
2022-11-24T21:32:14.506Z,4.55
2022-11-24T21:37:24.162Z,4.82
2022-11-24T21:39:52.599Z,4.35
2022-11-24T21:42:20.483Z,5.45
2022-11-24T21:47:30.531Z,3.75
2022-11-24T21:50:01.044Z,2.85
2022-11-24T21:52:28.954Z,3.47
2022-11-24T21:54:56.985Z,3.50
2022-11-24T21:57:27.280Z,8.15
2022-11-24T21:59:55.241Z,3.80
2022-11-24T22:05:05.668Z,3.22
2022-11-24T22:07:42.772Z,3.50
2022-11-24T22:10:11.009Z,6.03
2022-11-24T22:12:38.782Z,3.60
2022-11-24T22:15:07.111Z,2.75
2022-11-24T22:17:35.022Z,2.38
2022-11-24T22:20:02.926Z,2.30
2022-11-24T22:22:30.759Z,2.85
2022-11-24T22:24:58.912Z,2.20
2022-11-24T22:27:26.812Z,4.07
2022-11-24T22:29:54.853Z,4.30
2022-11-24T22:32:23.022Z,6.38
2022-11-24T22:34:51.285Z,2.63
2022-11-24T22:37:20.388Z,4.25
2022-11-24T22:42:30.668Z,3.10
2022-11-24T22:44:59.771Z,1.98
2022-11-24T22:47:30.013Z,4.90
2022-11-24T22:50:01.048Z,1.33
2022-11-24T22:52:30.062Z,2.05
2022-11-24T22:55:02.902Z,2.53
2022-11-24T22:57:30.751Z,1.38
2022-11-24T23:00:00.099Z,1.42
2022-11-24T23:02:29.298Z,2.70
2022-11-24T23:04:57.681Z,2.45
2022-11-24T23:10:10.563Z,2.15
2022-11-24T23:12:47.974Z,1.38
2022-11-24T23:15:16.218Z,1.60
2022-11-24T23:17:46.444Z,2.33
2022-11-24T23:20:14.592Z,1.50
2022-11-24T23:22:42.413Z,1.98
2022-11-24T23:25:10.775Z,2.00
2022-11-24T23:27:38.669Z,1.60
2022-11-24T23:30:07.692Z,1.95
2022-11-24T23:35:03.593Z,2.60
2022-11-24T23:37:52.090Z,1.80
2022-11-24T23:40:21.836Z,2.28
2022-11-24T23:42:57.719Z,3.38
2022-11-24T23:45:26.192Z,2.60
2022-11-24T23:48:03.547Z,1.80
2022-11-24T23:50:36.104Z,2.00
2022-11-24T23:53:04.440Z,2.20
2022-11-24T23:55:33.278Z,3.90
2022-11-24T23:58:01.164Z,2.25
